sensor_id;sensor_type;location;lat;lon;timestamp;P1;durP1;ratioP1;P2;durP2;ratioP2
67352;SDS011;54238;52.278;21.056;2022-11-02T00:01:07;54.30;;;31.40;;
67352;SDS011;54238;52.278;21.056;2022-11-02T00:03:46;49.80;;;27.70;;
67352;SDS011;54238;52.278;21.056;2022-11-02T00:06:13;56.80;;;29.20;;
67352;SDS011;54238;52.278;21.056;2022-11-02T00:08:41;54.40;;;28.10;;
67352;SDS011;54238;52.278;21.056;2022-11-02T00:11:10;49.10;;;28.30;;
67352;SDS011;54238;52.278;21.056;2022-11-02T00:13:38;52.20;;;27.10;;
67352;SDS011;54238;52.278;21.056;2022-11-02T00:16:10;53.00;;;28.00;;
67352;SDS011;54238;52.278;21.056;2022-11-02T00:18:41;54.20;;;27.70;;
67352;SDS011;54238;52.278;21.056;2022-11-02T00:21:14;52.60;;;28.40;;
67352;SDS011;54238;52.278;21.056;2022-11-02T00:23:43;49.80;;;26.40;;
67352;SDS011;54238;52.278;21.056;2022-11-02T00:26:11;55.40;;;28.80;;
67352;SDS011;54238;52.278;21.056;2022-11-02T00:28:38;53.30;;;28.50;;
67352;SDS011;54238;52.278;21.056;2022-11-02T00:31:10;67.60;;;31.50;;
67352;SDS011;54238;52.278;21.056;2022-11-02T00:33:39;54.50;;;29.20;;
67352;SDS011;54238;52.278;21.056;2022-11-02T00:36:06;52.00;;;27.10;;
67352;SDS011;54238;52.278;21.056;2022-11-02T00:38:36;58.60;;;31.30;;
67352;SDS011;54238;52.278;21.056;2022-11-02T00:41:07;58.80;;;30.30;;
67352;SDS011;54238;52.278;21.056;2022-11-02T00:43:34;53.40;;;31.10;;
67352;SDS011;54238;52.278;21.056;2022-11-02T00:46:01;58.20;;;28.90;;
67352;SDS011;54238;52.278;21.056;2022-11-02T00:48:28;65.90;;;31.00;;
67352;SDS011;54238;52.278;21.056;2022-11-02T00:50:55;60.60;;;31.90;;
67352;SDS011;54238;52.278;21.056;2022-11-02T00:53:22;63.50;;;33.60;;
67352;SDS011;54238;52.278;21.056;2022-11-02T00:55:52;59.60;;;30.50;;
67352;SDS011;54238;52.278;21.056;2022-11-02T00:58:22;53.30;;;27.40;;
67352;SDS011;54238;52.278;21.056;2022-11-02T01:00:56;61.40;;;31.30;;
67352;SDS011;54238;52.278;21.056;2022-11-02T01:03:22;53.80;;;31.60;;
67352;SDS011;54238;52.278;21.056;2022-11-02T01:05:51;49.70;;;28.90;;
67352;SDS011;54238;52.278;21.056;2022-11-02T01:08:20;57.60;;;30.00;;
67352;SDS011;54238;52.278;21.056;2022-11-02T01:10:50;57.30;;;28.60;;
67352;SDS011;54238;52.278;21.056;2022-11-02T01:13:17;57.90;;;29.40;;
67352;SDS011;54238;52.278;21.056;2022-11-02T01:15:44;56.20;;;29.90;;
67352;SDS011;54238;52.278;21.056;2022-11-02T01:18:11;55.60;;;29.70;;
67352;SDS011;54238;52.278;21.056;2022-11-02T01:20:38;57.90;;;29.90;;
67352;SDS011;54238;52.278;21.056;2022-11-02T01:23:08;47.60;;;26.80;;
67352;SDS011;54238;52.278;21.056;2022-11-02T01:25:37;55.00;;;31.70;;
67352;SDS011;54238;52.278;21.056;2022-11-02T01:28:06;50.30;;;30.40;;
67352;SDS011;54238;52.278;21.056;2022-11-02T01:30:40;50.80;;;27.90;;
67352;SDS011;54238;52.278;21.056;2022-11-02T01:33:13;54.70;;;29.50;;
67352;SDS011;54238;52.278;21.056;2022-11-02T01:35:44;58.90;;;30.90;;
67352;SDS011;54238;52.278;21.056;2022-11-02T01:38:11;48.00;;;28.20;;
67352;SDS011;54238;52.278;21.056;2022-11-02T01:40:39;51.10;;;28.50;;
67352;SDS011;54238;52.278;21.056;2022-11-02T01:43:30;50.80;;;30.10;;
67352;SDS011;54238;52.278;21.056;2022-11-02T01:51:16;49.30;;;27.30;;
67352;SDS011;54238;52.278;21.056;2022-11-02T01:54:17;54.10;;;30.70;;
67352;SDS011;54238;52.278;21.056;2022-11-02T01:56:56;51.30;;;29.70;;
67352;SDS011;54238;52.278;21.056;2022-11-02T01:59:33;58.40;;;31.50;;
67352;SDS011;54238;52.278;21.056;2022-11-02T02:02:14;59.10;;;31.60;;
67352;SDS011;54238;52.278;21.056;2022-11-02T02:04:51;55.60;;;31.40;;
67352;SDS011;54238;52.278;21.056;2022-11-02T02:07:22;61.60;;;32.40;;
67352;SDS011;54238;52.278;21.056;2022-11-02T02:09:54;67.10;;;29.70;;
67352;SDS011;54238;52.278;21.056;2022-11-02T02:12:22;57.10;;;31.90;;
67352;SDS011;54238;52.278;21.056;2022-11-02T02:14:53;55.70;;;30.60;;
67352;SDS011;54238;52.278;21.056;2022-11-02T02:26:31;63.70;;;34.80;;
67352;SDS011;54238;52.278;21.056;2022-11-02T02:35:01;73.10;;;36.10;;
67352;SDS011;54238;52.278;21.056;2022-11-02T02:37:57;78.50;;;38.00;;
67352;SDS011;54238;52.278;21.056;2022-11-02T02:40:38;77.00;;;36.30;;
67352;SDS011;54238;52.278;21.056;2022-11-02T02:46:25;70.60;;;36.80;;
67352;SDS011;54238;52.278;21.056;2022-11-02T02:48:56;82.20;;;41.90;;
67352;SDS011;54238;52.278;21.056;2022-11-02T02:51:28;92.00;;;43.20;;
67352;SDS011;54238;52.278;21.056;2022-11-02T02:54:02;75.00;;;37.40;;
67352;SDS011;54238;52.278;21.056;2022-11-02T02:56:40;67.40;;;33.30;;
67352;SDS011;54238;52.278;21.056;2022-11-02T02:59:21;96.10;;;42.00;;
67352;SDS011;54238;52.278;21.056;2022-11-02T03:01:53;86.90;;;41.20;;
67352;SDS011;54238;52.278;21.056;2022-11-02T03:04:23;87.00;;;38.10;;
67352;SDS011;54238;52.278;21.056;2022-11-02T03:06:53;90.00;;;42.70;;
67352;SDS011;54238;52.278;21.056;2022-11-02T03:09:30;97.90;;;45.20;;
67352;SDS011;54238;52.278;21.056;2022-11-02T03:15:10;103.60;;;43.10;;
67352;SDS011;54238;52.278;21.056;2022-11-02T03:18:01;103.80;;;42.60;;
67352;SDS011;54238;52.278;21.056;2022-11-02T03:23:40;88.40;;;41.20;;
67352;SDS011;54238;52.278;21.056;2022-11-02T03:26:33;102.00;;;43.70;;
67352;SDS011;54238;52.278;21.056;2022-11-02T03:29:12;108.60;;;46.60;;
67352;SDS011;54238;52.278;21.056;2022-11-02T03:31:59;110.70;;;48.10;;
67352;SDS011;54238;52.278;21.056;2022-11-02T03:34:40;117.90;;;50.00;;
67352;SDS011;54238;52.278;21.056;2022-11-02T03:37:28;109.90;;;48.00;;
67352;SDS011;54238;52.278;21.056;2022-11-02T03:42:44;104.30;;;47.20;;
67352;SDS011;54238;52.278;21.056;2022-11-02T03:47:56;105.70;;;45.60;;
67352;SDS011;54238;52.278;21.056;2022-11-02T03:50:29;94.10;;;41.00;;
67352;SDS011;54238;52.278;21.056;2022-11-02T03:53:11;93.20;;;41.20;;
67352;SDS011;54238;52.278;21.056;2022-11-02T03:55:50;118.60;;;49.70;;
67352;SDS011;54238;52.278;21.056;2022-11-02T03:58:26;98.70;;;42.90;;
67352;SDS011;54238;52.278;21.056;2022-11-02T04:00:57;115.90;;;47.20;;
67352;SDS011;54238;52.278;21.056;2022-11-02T04:03:32;113.20;;;47.90;;
67352;SDS011;54238;52.278;21.056;2022-11-02T04:06:06;103.60;;;44.30;;
67352;SDS011;54238;52.278;21.056;2022-11-02T04:08:38;115.10;;;51.40;;
67352;SDS011;54238;52.278;21.056;2022-11-02T04:11:10;123.40;;;50.60;;
67352;SDS011;54238;52.278;21.056;2022-11-02T04:13:56;126.60;;;53.50;;
67352;SDS011;54238;52.278;21.056;2022-11-02T04:16:44;116.50;;;49.10;;
67352;SDS011;54238;52.278;21.056;2022-11-02T04:19:11;132.00;;;52.20;;
67352;SDS011;54238;52.278;21.056;2022-11-02T04:24:41;129.30;;;51.70;;
67352;SDS011;54238;52.278;21.056;2022-11-02T04:27:31;122.30;;;49.40;;
67352;SDS011;54238;52.278;21.056;2022-11-02T04:30:33;135.60;;;53.70;;
67352;SDS011;54238;52.278;21.056;2022-11-02T04:33:02;133.50;;;50.00;;
67352;SDS011;54238;52.278;21.056;2022-11-02T04:35:50;128.00;;;52.40;;
67352;SDS011;54238;52.278;21.056;2022-11-02T04:38:22;138.00;;;53.70;;
67352;SDS011;54238;52.278;21.056;2022-11-02T04:41:09;119.30;;;49.00;;
67352;SDS011;54238;52.278;21.056;2022-11-02T04:44:01;161.60;;;58.50;;
67352;SDS011;54238;52.278;21.056;2022-11-02T04:46:30;155.90;;;61.10;;
67352;SDS011;54238;52.278;21.056;2022-11-02T04:49:02;151.00;;;56.90;;
67352;SDS011;54238;52.278;21.056;2022-11-02T04:51:32;163.40;;;57.80;;
67352;SDS011;54238;52.278;21.056;2022-11-02T04:54:04;147.60;;;58.10;;
67352;SDS011;54238;52.278;21.056;2022-11-02T04:56:34;128.80;;;49.60;;
67352;SDS011;54238;52.278;21.056;2022-11-02T04:59:06;152.60;;;58.80;;
67352;SDS011;54238;52.278;21.056;2022-11-02T05:01:33;136.90;;;53.70;;
67352;SDS011;54238;52.278;21.056;2022-11-02T05:04:03;159.40;;;60.40;;
67352;SDS011;54238;52.278;21.056;2022-11-02T05:06:36;146.40;;;55.90;;
67352;SDS011;54238;52.278;21.056;2022-11-02T05:09:08;149.90;;;59.20;;
67352;SDS011;54238;52.278;21.056;2022-11-02T05:11:40;161.20;;;58.10;;
67352;SDS011;54238;52.278;21.056;2022-11-02T05:14:12;143.50;;;55.10;;
67352;SDS011;54238;52.278;21.056;2022-11-02T05:16:39;161.10;;;58.00;;
67352;SDS011;54238;52.278;21.056;2022-11-02T05:22:05;147.20;;;56.60;;
67352;SDS011;54238;52.278;21.056;2022-11-02T05:24:32;164.90;;;62.30;;
67352;SDS011;54238;52.278;21.056;2022-11-02T05:26:59;153.30;;;52.80;;
67352;SDS011;54238;52.278;21.056;2022-11-02T05:32:22;148.80;;;56.30;;
67352;SDS011;54238;52.278;21.056;2022-11-02T05:34:49;163.00;;;60.50;;
67352;SDS011;54238;52.278;21.056;2022-11-02T05:37:16;158.90;;;59.60;;
67352;SDS011;54238;52.278;21.056;2022-11-02T05:42:41;156.80;;;56.70;;
67352;SDS011;54238;52.278;21.056;2022-11-02T05:45:11;150.80;;;60.30;;
67352;SDS011;54238;52.278;21.056;2022-11-02T05:47:44;123.50;;;48.00;;
67352;SDS011;54238;52.278;21.056;2022-11-02T05:50:13;153.50;;;61.00;;
67352;SDS011;54238;52.278;21.056;2022-11-02T05:52:40;153.20;;;57.20;;
67352;SDS011;54238;52.278;21.056;2022-11-02T05:58:11;148.80;;;57.30;;
67352;SDS011;54238;52.278;21.056;2022-11-02T06:00:40;134.90;;;53.70;;
67352;SDS011;54238;52.278;21.056;2022-11-02T06:03:10;156.90;;;59.00;;
67352;SDS011;54238;52.278;21.056;2022-11-02T06:05:42;114.90;;;45.90;;
67352;SDS011;54238;52.278;21.056;2022-11-02T06:08:12;147.50;;;56.00;;
67352;SDS011;54238;52.278;21.056;2022-11-02T06:10:52;137.00;;;53.70;;
67352;SDS011;54238;52.278;21.056;2022-11-02T06:13:26;151.40;;;60.90;;
67352;SDS011;54238;52.278;21.056;2022-11-02T06:16:05;140.30;;;55.00;;
67352;SDS011;54238;52.278;21.056;2022-11-02T06:18:36;124.90;;;50.50;;
67352;SDS011;54238;52.278;21.056;2022-11-02T06:24:01;122.70;;;51.00;;
67352;SDS011;54238;52.278;21.056;2022-11-02T06:26:30;120.80;;;46.10;;
67352;SDS011;54238;52.278;21.056;2022-11-02T06:28:59;116.10;;;49.30;;
67352;SDS011;54238;52.278;21.056;2022-11-02T06:31:31;127.90;;;49.40;;
67352;SDS011;54238;52.278;21.056;2022-11-02T06:33:58;113.10;;;47.40;;
67352;SDS011;54238;52.278;21.056;2022-11-02T06:39:24;114.90;;;47.00;;
67352;SDS011;54238;52.278;21.056;2022-11-02T06:41:53;121.20;;;52.50;;
67352;SDS011;54238;52.278;21.056;2022-11-02T06:44:26;124.00;;;48.20;;
67352;SDS011;54238;52.278;21.056;2022-11-02T06:47:04;111.60;;;48.00;;
67352;SDS011;54238;52.278;21.056;2022-11-02T06:49:39;86.70;;;39.60;;
67352;SDS011;54238;52.278;21.056;2022-11-02T06:52:11;97.90;;;42.80;;
67352;SDS011;54238;52.278;21.056;2022-11-02T06:54:39;101.30;;;43.20;;
67352;SDS011;54238;52.278;21.056;2022-11-02T06:57:16;74.00;;;36.10;;
67352;SDS011;54238;52.278;21.056;2022-11-02T07:02:10;68.50;;;32.40;;
67352;SDS011;54238;52.278;21.056;2022-11-02T07:04:37;60.30;;;30.40;;
67352;SDS011;54238;52.278;21.056;2022-11-02T07:07:07;72.90;;;32.80;;
67352;SDS011;54238;52.278;21.056;2022-11-02T07:09:39;75.40;;;35.80;;
67352;SDS011;54238;52.278;21.056;2022-11-02T07:12:10;73.30;;;34.60;;
67352;SDS011;54238;52.278;21.056;2022-11-02T07:14:44;73.90;;;33.40;;
67352;SDS011;54238;52.278;21.056;2022-11-02T07:17:13;64.90;;;31.40;;
67352;SDS011;54238;52.278;21.056;2022-11-02T07:19:40;67.60;;;33.90;;
67352;SDS011;54238;52.278;21.056;2022-11-02T07:22:09;70.60;;;33.90;;
67352;SDS011;54238;52.278;21.056;2022-11-02T07:24:39;80.00;;;35.90;;
67352;SDS011;54238;52.278;21.056;2022-11-02T07:27:05;73.00;;;34.30;;
67352;SDS011;54238;52.278;21.056;2022-11-02T07:29:33;67.30;;;34.60;;
67352;SDS011;54238;52.278;21.056;2022-11-02T07:32:02;69.40;;;33.80;;
67352;SDS011;54238;52.278;21.056;2022-11-02T07:34:33;58.40;;;33.80;;
67352;SDS011;54238;52.278;21.056;2022-11-02T07:37:03;58.70;;;30.50;;
67352;SDS011;54238;52.278;21.056;2022-11-02T07:39:30;55.10;;;26.50;;
67352;SDS011;54238;52.278;21.056;2022-11-02T07:42:09;66.40;;;29.10;;
67352;SDS011;54238;52.278;21.056;2022-11-02T07:44:38;69.50;;;32.20;;
67352;SDS011;54238;52.278;21.056;2022-11-02T07:47:08;61.30;;;30.10;;
67352;SDS011;54238;52.278;21.056;2022-11-02T07:49:39;65.30;;;29.60;;
67352;SDS011;54238;52.278;21.056;2022-11-02T07:52:09;60.40;;;30.20;;
67352;SDS011;54238;52.278;21.056;2022-11-02T07:54:36;62.40;;;28.70;;
67352;SDS011;54238;52.278;21.056;2022-11-02T07:57:08;58.80;;;29.10;;
67352;SDS011;54238;52.278;21.056;2022-11-02T07:59:38;45.20;;;24.50;;
67352;SDS011;54238;52.278;21.056;2022-11-02T08:02:10;53.60;;;28.70;;
67352;SDS011;54238;52.278;21.056;2022-11-02T08:04:41;54.40;;;28.00;;
67352;SDS011;54238;52.278;21.056;2022-11-02T08:07:12;54.20;;;23.90;;
67352;SDS011;54238;52.278;21.056;2022-11-02T08:09:44;54.70;;;27.50;;
67352;SDS011;54238;52.278;21.056;2022-11-02T08:12:11;47.20;;;24.20;;
67352;SDS011;54238;52.278;21.056;2022-11-02T08:14:38;46.20;;;25.10;;
67352;SDS011;54238;52.278;21.056;2022-11-02T08:17:05;48.40;;;25.40;;
67352;SDS011;54238;52.278;21.056;2022-11-02T08:19:37;51.70;;;25.60;;
67352;SDS011;54238;52.278;21.056;2022-11-02T08:22:06;48.70;;;25.70;;
67352;SDS011;54238;52.278;21.056;2022-11-02T08:24:36;49.60;;;25.90;;
67352;SDS011;54238;52.278;21.056;2022-11-02T08:27:03;44.40;;;24.90;;
67352;SDS011;54238;52.278;21.056;2022-11-02T08:29:30;53.80;;;24.20;;
67352;SDS011;54238;52.278;21.056;2022-11-02T08:31:59;37.50;;;22.60;;
67352;SDS011;54238;52.278;21.056;2022-11-02T08:34:27;46.20;;;24.30;;
67352;SDS011;54238;52.278;21.056;2022-11-02T08:36:57;41.30;;;22.60;;
67352;SDS011;54238;52.278;21.056;2022-11-02T08:39:29;42.80;;;22.60;;
67352;SDS011;54238;52.278;21.056;2022-11-02T08:41:58;44.50;;;23.20;;
67352;SDS011;54238;52.278;21.056;2022-11-02T08:44:27;48.60;;;23.20;;
67352;SDS011;54238;52.278;21.056;2022-11-02T08:46:57;38.10;;;21.40;;
67352;SDS011;54238;52.278;21.056;2022-11-02T08:49:24;41.30;;;22.60;;
67352;SDS011;54238;52.278;21.056;2022-11-02T08:51:53;40.00;;;21.50;;
67352;SDS011;54238;52.278;21.056;2022-11-02T08:54:25;40.50;;;23.20;;
67352;SDS011;54238;52.278;21.056;2022-11-02T08:56:57;39.20;;;21.90;;
67352;SDS011;54238;52.278;21.056;2022-11-02T08:59:24;34.10;;;19.80;;
67352;SDS011;54238;52.278;21.056;2022-11-02T09:01:54;42.70;;;22.10;;
67352;SDS011;54238;52.278;21.056;2022-11-02T09:04:21;37.30;;;21.50;;
67352;SDS011;54238;52.278;21.056;2022-11-02T09:06:48;39.10;;;21.90;;
67352;SDS011;54238;52.278;21.056;2022-11-02T09:09:15;42.00;;;22.50;;
67352;SDS011;54238;52.278;21.056;2022-11-02T09:11:48;39.70;;;22.40;;
67352;SDS011;54238;52.278;21.056;2022-11-02T09:14:18;35.40;;;21.60;;
67352;SDS011;54238;52.278;21.056;2022-11-02T09:16:45;39.80;;;22.70;;
67352;SDS011;54238;52.278;21.056;2022-11-02T09:19:14;34.60;;;21.80;;
67352;SDS011;54238;52.278;21.056;2022-11-02T09:21:44;42.60;;;21.90;;
67352;SDS011;54238;52.278;21.056;2022-11-02T09:24:11;37.30;;;23.00;;
67352;SDS011;54238;52.278;21.056;2022-11-02T09:26:40;40.30;;;22.30;;
67352;SDS011;54238;52.278;21.056;2022-11-02T09:29:12;39.40;;;24.80;;
67352;SDS011;54238;52.278;21.056;2022-11-02T09:31:47;36.90;;;22.30;;
67352;SDS011;54238;52.278;21.056;2022-11-02T09:34:17;45.60;;;25.50;;
67352;SDS011;54238;52.278;21.056;2022-11-02T09:39:44;40.60;;;24.50;;
67352;SDS011;54238;52.278;21.056;2022-11-02T09:45:07;43.20;;;25.80;;
67352;SDS011;54238;52.278;21.056;2022-11-02T09:47:47;41.90;;;25.80;;
67352;SDS011;54238;52.278;21.056;2022-11-02T09:50:39;38.60;;;26.00;;
67352;SDS011;54238;52.278;21.056;2022-11-02T09:53:19;38.70;;;24.50;;
67352;SDS011;54238;52.278;21.056;2022-11-02T09:56:00;48.90;;;26.70;;
67352;SDS011;54238;52.278;21.056;2022-11-02T09:58:36;41.50;;;25.90;;
67352;SDS011;54238;52.278;21.056;2022-11-02T10:04:14;42.10;;;28.30;;
67352;SDS011;54238;52.278;21.056;2022-11-02T10:10:04;38.20;;;23.70;;
67352;SDS011;54238;52.278;21.056;2022-11-02T10:15:50;37.50;;;21.80;;
67352;SDS011;54238;52.278;21.056;2022-11-02T10:18:23;40.00;;;22.20;;
67352;SDS011;54238;52.278;21.056;2022-11-02T10:20:56;39.70;;;23.80;;
67352;SDS011;54238;52.278;21.056;2022-11-02T10:25:57;42.30;;;22.10;;
67352;SDS011;54238;52.278;21.056;2022-11-02T10:28:30;38.70;;;23.80;;
67352;SDS011;54238;52.278;21.056;2022-11-02T10:31:01;38.90;;;22.10;;
67352;SDS011;54238;52.278;21.056;2022-11-02T10:33:32;34.30;;;19.70;;
67352;SDS011;54238;52.278;21.056;2022-11-02T10:48:05;41.70;;;23.00;;
67352;SDS011;54238;52.278;21.056;2022-11-02T10:53:16;42.10;;;21.00;;
67352;SDS011;54238;52.278;21.056;2022-11-02T10:58:31;37.60;;;21.80;;
67352;SDS011;54238;52.278;21.056;2022-11-02T11:01:10;42.40;;;24.80;;
67352;SDS011;54238;52.278;21.056;2022-11-02T11:06:35;38.80;;;21.70;;
67352;SDS011;54238;52.278;21.056;2022-11-02T11:09:06;31.40;;;19.60;;
67352;SDS011;54238;52.278;21.056;2022-11-02T11:12:04;40.00;;;22.20;;
67352;SDS011;54238;52.278;21.056;2022-11-02T11:17:41;41.70;;;23.20;;
67352;SDS011;54238;52.278;21.056;2022-11-02T11:20:44;38.20;;;21.10;;
67352;SDS011;54238;52.278;21.056;2022-11-02T11:26:02;40.60;;;21.00;;
67352;SDS011;54238;52.278;21.056;2022-11-02T11:28:51;33.90;;;19.90;;
67352;SDS011;54238;52.278;21.056;2022-11-02T11:31:20;34.60;;;19.80;;
67352;SDS011;54238;52.278;21.056;2022-11-02T11:33:57;34.50;;;19.10;;
67352;SDS011;54238;52.278;21.056;2022-11-02T11:36:31;30.60;;;18.50;;
67352;SDS011;54238;52.278;21.056;2022-11-02T11:39:26;33.20;;;19.80;;
67352;SDS011;54238;52.278;21.056;2022-11-02T11:41:58;28.60;;;19.20;;
67352;SDS011;54238;52.278;21.056;2022-11-02T11:44:31;42.60;;;21.50;;
67352;SDS011;54238;52.278;21.056;2022-11-02T11:47:00;38.30;;;19.50;;
67352;SDS011;54238;52.278;21.056;2022-11-02T11:49:35;37.20;;;20.00;;
67352;SDS011;54238;52.278;21.056;2022-11-02T11:52:26;28.80;;;17.80;;
67352;SDS011;54238;52.278;21.056;2022-11-02T11:55:00;31.00;;;17.70;;
67352;SDS011;54238;52.278;21.056;2022-11-02T11:58:04;26.90;;;17.00;;
67352;SDS011;54238;52.278;21.056;2022-11-02T12:00:36;24.60;;;15.50;;
67352;SDS011;54238;52.278;21.056;2022-11-02T12:03:10;23.10;;;15.60;;
67352;SDS011;54238;52.278;21.056;2022-11-02T12:08:26;21.80;;;12.60;;
67352;SDS011;54238;52.278;21.056;2022-11-02T12:11:51;18.50;;;12.70;;
67352;SDS011;54238;52.278;21.056;2022-11-02T12:20:58;23.70;;;14.00;;
67352;SDS011;54238;52.278;21.056;2022-11-02T12:33:04;27.80;;;11.90;;
67352;SDS011;54238;52.278;21.056;2022-11-02T12:35:56;21.10;;;12.70;;
67352;SDS011;54238;52.278;21.056;2022-11-02T12:38:59;16.30;;;10.60;;
67352;SDS011;54238;52.278;21.056;2022-11-02T12:41:34;18.20;;;12.10;;
67352;SDS011;54238;52.278;21.056;2022-11-02T12:46:56;20.20;;;12.00;;
67352;SDS011;54238;52.278;21.056;2022-11-02T12:49:36;18.10;;;12.60;;
67352;SDS011;54238;52.278;21.056;2022-11-02T12:55:33;15.80;;;12.30;;
67352;SDS011;54238;52.278;21.056;2022-11-02T12:58:20;16.90;;;11.60;;
67352;SDS011;54238;52.278;21.056;2022-11-02T13:01:04;19.50;;;12.90;;
67352;SDS011;54238;52.278;21.056;2022-11-02T13:06:38;25.90;;;13.20;;
67352;SDS011;54238;52.278;21.056;2022-11-02T13:09:20;17.80;;;10.90;;
67352;SDS011;54238;52.278;21.056;2022-11-02T13:12:02;14.20;;;10.90;;
67352;SDS011;54238;52.278;21.056;2022-11-02T13:14:40;19.30;;;11.70;;
67352;SDS011;54238;52.278;21.056;2022-11-02T13:20:53;15.70;;;10.80;;
67352;SDS011;54238;52.278;21.056;2022-11-02T13:26:44;16.80;;;12.10;;
67352;SDS011;54238;52.278;21.056;2022-11-02T13:34:53;16.80;;;10.60;;
67352;SDS011;54238;52.278;21.056;2022-11-02T13:37:28;19.70;;;11.20;;
67352;SDS011;54238;52.278;21.056;2022-11-02T13:40:10;18.70;;;11.60;;
67352;SDS011;54238;52.278;21.056;2022-11-02T13:46:14;19.70;;;13.00;;
67352;SDS011;54238;52.278;21.056;2022-11-02T13:52:03;19.70;;;11.90;;
67352;SDS011;54238;52.278;21.056;2022-11-02T13:54:41;19.10;;;11.00;;
67352;SDS011;54238;52.278;21.056;2022-11-02T13:57:33;22.50;;;11.50;;
67352;SDS011;54238;52.278;21.056;2022-11-02T14:02:54;15.30;;;11.40;;
67352;SDS011;54238;52.278;21.056;2022-11-02T14:08:47;21.50;;;13.30;;
67352;SDS011;54238;52.278;21.056;2022-11-02T14:16:45;24.10;;;15.60;;
67352;SDS011;54238;52.278;21.056;2022-11-02T14:19:48;19.40;;;14.00;;
67352;SDS011;54238;52.278;21.056;2022-11-02T14:22:18;24.60;;;16.30;;
67352;SDS011;54238;52.278;21.056;2022-11-02T14:38:11;24.60;;;17.70;;
67352;SDS011;54238;52.278;21.056;2022-11-02T14:46:59;27.30;;;17.20;;
67352;SDS011;54238;52.278;21.056;2022-11-02T14:49:37;33.50;;;16.50;;
67352;SDS011;54238;52.278;21.056;2022-11-02T14:54:58;23.30;;;15.50;;
67352;SDS011;54238;52.278;21.056;2022-11-02T14:57:35;27.50;;;17.30;;
67352;SDS011;54238;52.278;21.056;2022-11-02T15:00:18;29.00;;;16.70;;
67352;SDS011;54238;52.278;21.056;2022-11-02T15:02:47;28.70;;;17.40;;
67352;SDS011;54238;52.278;21.056;2022-11-02T15:05:31;40.50;;;18.70;;
67352;SDS011;54238;52.278;21.056;2022-11-02T15:08:34;35.60;;;18.00;;
67352;SDS011;54238;52.278;21.056;2022-11-02T15:19:43;34.00;;;20.20;;
67352;SDS011;54238;52.278;21.056;2022-11-02T15:22:35;31.50;;;18.60;;
67352;SDS011;54238;52.278;21.056;2022-11-02T15:25:28;34.70;;;19.80;;
67352;SDS011;54238;52.278;21.056;2022-11-02T15:28:08;32.20;;;19.00;;
67352;SDS011;54238;52.278;21.056;2022-11-02T15:30:52;31.60;;;19.00;;
67352;SDS011;54238;52.278;21.056;2022-11-02T15:33:41;31.10;;;17.80;;
67352;SDS011;54238;52.278;21.056;2022-11-02T15:36:23;31.80;;;19.20;;
67352;SDS011;54238;52.278;21.056;2022-11-02T15:39:05;37.30;;;20.00;;
67352;SDS011;54238;52.278;21.056;2022-11-02T15:41:43;36.80;;;20.30;;
67352;SDS011;54238;52.278;21.056;2022-11-02T15:44:26;34.30;;;20.40;;
67352;SDS011;54238;52.278;21.056;2022-11-02T15:47:17;36.90;;;20.60;;
67352;SDS011;54238;52.278;21.056;2022-11-02T16:02:23;35.10;;;20.50;;
67352;SDS011;54238;52.278;21.056;2022-11-02T16:04:57;44.40;;;22.60;;
67352;SDS011;54238;52.278;21.056;2022-11-02T16:07:28;41.40;;;22.90;;
67352;SDS011;54238;52.278;21.056;2022-11-02T16:13:15;38.40;;;22.70;;
67352;SDS011;54238;52.278;21.056;2022-11-02T16:16:03;33.10;;;21.00;;
67352;SDS011;54238;52.278;21.056;2022-11-02T16:18:38;42.70;;;22.20;;
67352;SDS011;54238;52.278;21.056;2022-11-02T16:21:12;41.00;;;24.70;;
67352;SDS011;54238;52.278;21.056;2022-11-02T16:23:48;38.60;;;23.10;;
67352;SDS011;54238;52.278;21.056;2022-11-02T16:26:27;35.00;;;23.30;;
67352;SDS011;54238;52.278;21.056;2022-11-02T16:28:56;43.10;;;22.80;;
67352;SDS011;54238;52.278;21.056;2022-11-02T16:31:26;30.30;;;20.50;;
67352;SDS011;54238;52.278;21.056;2022-11-02T16:34:19;38.90;;;23.20;;
67352;SDS011;54238;52.278;21.056;2022-11-02T16:36:49;38.90;;;24.10;;
67352;SDS011;54238;52.278;21.056;2022-11-02T16:39:27;42.40;;;24.90;;
67352;SDS011;54238;52.278;21.056;2022-11-02T16:42:08;42.30;;;24.70;;
67352;SDS011;54238;52.278;21.056;2022-11-02T16:44:53;33.00;;;21.50;;
67352;SDS011;54238;52.278;21.056;2022-11-02T16:47:40;39.10;;;24.10;;
67352;SDS011;54238;52.278;21.056;2022-11-02T16:50:20;46.30;;;25.20;;
67352;SDS011;54238;52.278;21.056;2022-11-02T16:53:00;40.10;;;22.80;;
67352;SDS011;54238;52.278;21.056;2022-11-02T16:55:34;33.30;;;18.60;;
67352;SDS011;54238;52.278;21.056;2022-11-02T16:58:05;32.60;;;21.00;;
67352;SDS011;54238;52.278;21.056;2022-11-02T17:00:34;32.40;;;20.00;;
67352;SDS011;54238;52.278;21.056;2022-11-02T17:03:07;38.70;;;22.20;;
67352;SDS011;54238;52.278;21.056;2022-11-02T17:05:39;44.70;;;22.00;;
67352;SDS011;54238;52.278;21.056;2022-11-02T17:08:39;39.60;;;21.50;;
67352;SDS011;54238;52.278;21.056;2022-11-02T17:11:14;35.10;;;18.80;;
67352;SDS011;54238;52.278;21.056;2022-11-02T17:13:54;34.50;;;17.70;;
67352;SDS011;54238;52.278;21.056;2022-11-02T17:16:31;31.40;;;19.60;;
67352;SDS011;54238;52.278;21.056;2022-11-02T17:19:02;33.20;;;19.20;;
67352;SDS011;54238;52.278;21.056;2022-11-02T17:21:32;31.60;;;17.90;;
67352;SDS011;54238;52.278;21.056;2022-11-02T17:24:28;32.80;;;14.90;;
67352;SDS011;54238;52.278;21.056;2022-11-02T17:27:22;26.10;;;15.00;;
67352;SDS011;54238;52.278;21.056;2022-11-02T17:29:52;32.40;;;15.70;;
67352;SDS011;54238;52.278;21.056;2022-11-02T17:32:24;36.10;;;14.90;;
67352;SDS011;54238;52.278;21.056;2022-11-02T17:34:56;28.50;;;14.20;;
67352;SDS011;54238;52.278;21.056;2022-11-02T17:37:28;25.20;;;12.20;;
67352;SDS011;54238;52.278;21.056;2022-11-02T17:39:59;26.50;;;13.60;;
67352;SDS011;54238;52.278;21.056;2022-11-02T17:42:29;27.10;;;13.90;;
67352;SDS011;54238;52.278;21.056;2022-11-02T17:45:31;27.80;;;13.70;;
67352;SDS011;54238;52.278;21.056;2022-11-02T17:48:00;21.20;;;11.90;;
67352;SDS011;54238;52.278;21.056;2022-11-02T17:50:29;24.50;;;13.60;;
67352;SDS011;54238;52.278;21.056;2022-11-02T17:53:01;26.20;;;12.40;;
67352;SDS011;54238;52.278;21.056;2022-11-02T17:55:33;24.30;;;11.50;;
67352;SDS011;54238;52.278;21.056;2022-11-02T17:58:04;28.30;;;11.20;;
67352;SDS011;54238;52.278;21.056;2022-11-02T18:03:17;26.40;;;11.30;;
67352;SDS011;54238;52.278;21.056;2022-11-02T18:05:49;24.70;;;10.90;;
67352;SDS011;54238;52.278;21.056;2022-11-02T18:08:22;31.80;;;11.50;;
67352;SDS011;54238;52.278;21.056;2022-11-02T18:10:51;21.70;;;11.20;;
67352;SDS011;54238;52.278;21.056;2022-11-02T18:13:21;25.20;;;9.90;;
67352;SDS011;54238;52.278;21.056;2022-11-02T18:15:52;20.90;;;9.70;;
67352;SDS011;54238;52.278;21.056;2022-11-02T18:18:21;23.00;;;9.30;;